Time;durP1;ratioP1;P1;durP2;ratioP2;P2;SDS_P1;SDS_P2;PMS_P1;PMS_P2;Temp;Humidity;BMP_temperature;BMP_pressure;BME280_temperature;BME280_humidity;BME280_pressure;Samples;Min_cycle;Max_cycle;Signal;HPM_P1;HPM_P2
2022/03/12 00:02:18;;;;;;;;;;;6.90;54.60;;;;;;4984269;28;20322;-74
2022/03/12 00:04:45;;;;;;;;;;;7.00;54.70;;;;;;4984918;28;19926;-74
2022/03/12 00:07:12;;;;;;;;;;;7.00;54.80;;;;;;4984852;28;20386;-74
2022/03/12 00:09:39;;;;;;;;;;;6.90;54.80;;;;;;4983563;28;19937;-74
2022/03/12 00:12:07;;;;;;;;;;;6.90;54.90;;;;;;4984441;28;19930;-74
2022/03/12 00:14:37;;;;;;;;;;;6.90;55.10;;;;;;4984947;28;20432;-74
2022/03/12 00:17:04;;;;;;;;;;;6.80;55.10;;;;;;4984723;28;19989;-74
2022/03/12 00:19:32;;;;;;;;;;;6.80;55.40;;;;;;4983627;28;20349;-74
2022/03/12 00:22:03;;;;;;;;;;;6.80;55.40;;;;;;4985006;28;19937;-74
2022/03/12 00:24:30;;;;;;;;;;;6.80;55.30;;;;;;4984888;28;19944;-74
2022/03/12 00:27:00;;;;;;;;;;;6.80;55.50;;;;;;4985787;28;20265;-74
2022/03/12 00:29:26;;;;;;;;;;;6.80;55.50;;;;;;4984510;28;19934;-74
2022/03/12 00:31:54;;;;;;;;;;;6.70;55.40;;;;;;4982834;28;19930;-74
2022/03/12 00:34:20;;;;;;;;;;;6.70;55.50;;;;;;4979455;28;20405;-74
2022/03/12 00:36:48;;;;;;;;;;;6.70;55.50;;;;;;4983428;28;19941;-74
2022/03/12 00:39:15;;;;;;;;;;;6.70;55.30;;;;;;4980581;28;20296;-74
2022/03/12 00:41:43;;;;;;;;;;;6.70;55.40;;;;;;4984220;28;20004;-74
2022/03/12 00:44:12;;;;;;;;;;;6.60;55.40;;;;;;4982547;28;19941;-74
2022/03/12 00:46:39;;;;;;;;;;;6.60;55.60;;;;;;4982802;28;20020;-74
2022/03/12 00:49:05;;;;;;;;;;;6.60;55.40;;;;;;4983212;28;19933;-74
2022/03/12 00:51:32;;;;;;;;;;;6.60;55.40;;;;;;4984101;28;19937;-74
2022/03/12 00:54:00;;;;;;;;;;;6.60;55.40;;;;;;4983246;28;19929;-74
2022/03/12 00:56:26;;;;;;;;;;;6.60;55.40;;;;;;4981204;28;19937;-73
2022/03/12 00:58:53;;;;;;;;;;;6.50;55.40;;;;;;4984558;28;19929;-74
2022/03/12 01:01:19;;;;;;;;;;;6.50;55.30;;;;;;4983207;28;20393;-74
2022/03/12 01:03:46;;;;;;;;;;;6.50;55.30;;;;;;4983220;28;20789;-74
2022/03/12 01:06:13;;;;;;;;;;;6.50;55.40;;;;;;4986527;28;20382;-74
2022/03/12 01:08:40;;;;;;;;;;;6.50;55.30;;;;;;4983744;28;19933;-74
2022/03/12 01:11:09;;;;;;;;;;;6.50;55.40;;;;;;4986240;28;19937;-73
2022/03/12 01:13:36;;;;;;;;;;;6.50;55.40;;;;;;4985916;28;19937;-74
2022/03/12 01:16:03;;;;;;;;;;;6.50;55.40;;;;;;4987234;28;19937;-74
2022/03/12 01:18:29;;;;;;;;;;;6.40;55.40;;;;;;4985479;28;19929;-74
2022/03/12 01:20:56;;;;;;;;;;;6.60;55.50;;;;;;4988204;28;19930;-74
2022/03/12 01:23:24;;;;;;;;;;;6.50;55.40;;;;;;4995863;28;19930;-74
2022/03/12 01:25:52;;;;;;;;;;;6.50;55.30;;;;;;4985575;28;20389;-74
2022/03/12 01:28:20;;;;;;;;;;;6.40;55.40;;;;;;4984037;28;19938;-74
2022/03/12 01:30:47;;;;;;;;;;;6.40;55.50;;;;;;4988973;28;19954;-74
2022/03/12 01:33:14;;;;;;;;;;;6.40;55.60;;;;;;4986320;28;19930;-74
2022/03/12 01:35:41;;;;;;;;;;;6.40;55.60;;;;;;4986652;28;20409;-73
2022/03/12 01:38:07;;;;;;;;;;;6.40;55.70;;;;;;4984959;28;19956;-73
2022/03/12 01:40:34;;;;;;;;;;;6.40;55.70;;;;;;4987245;28;20806;-74
2022/03/12 01:43:01;;;;;;;;;;;6.40;55.80;;;;;;4987763;28;20462;-74
2022/03/12 01:45:29;;;;;;;;;;;6.40;55.50;;;;;;4982981;28;19951;-74
2022/03/12 01:47:56;;;;;;;;;;;6.30;55.30;;;;;;4985559;28;19929;-74
2022/03/12 01:50:25;;;;;;;;;;;6.30;55.20;;;;;;4986010;28;20390;-74
2022/03/12 01:52:54;;;;;;;;;;;6.30;55.00;;;;;;4987337;28;19930;-74
2022/03/12 01:55:22;;;;;;;;;;;6.30;55.10;;;;;;4985669;28;19933;-74
2022/03/12 01:57:48;;;;;;;;;;;6.30;55.30;;;;;;4984119;28;19940;-74
2022/03/12 02:00:22;;;;;;;;;;;6.30;55.20;;;;;;4987194;28;20386;-74
2022/03/12 02:02:51;;;;;;;;;;;6.30;55.30;;;;;;4986883;28;19934;-74
2022/03/12 02:05:18;;;;;;;;;;;6.30;55.30;;;;;;4987604;28;19976;-74
2022/03/12 02:07:44;;;;;;;;;;;6.30;55.30;;;;;;4986102;28;20341;-75
2022/03/12 02:10:20;;;;;;;;;;;6.30;55.30;;;;;;4986755;28;20394;-74
2022/03/12 02:12:46;;;;;;;;;;;6.30;55.30;;;;;;4984513;28;19933;-74
2022/03/12 02:15:15;;;;;;;;;;;6.30;55.50;;;;;;4986679;28;19937;-74
2022/03/12 02:17:41;;;;;;;;;;;6.30;55.80;;;;;;4983528;28;19988;-74
2022/03/12 02:20:09;;;;;;;;;;;6.30;55.90;;;;;;4987481;28;19926;-74
2022/03/12 02:22:36;;;;;;;;;;;6.20;55.90;;;;;;4987160;28;20382;-74
2022/03/12 02:25:04;;;;;;;;;;;6.20;55.90;;;;;;4988047;28;19926;-74
2022/03/12 02:27:31;;;;;;;;;;;6.20;56.00;;;;;;4984436;28;19930;-74
2022/03/12 02:29:59;;;;;;;;;;;6.20;56.00;;;;;;4979717;28;20676;-74
2022/03/12 02:32:25;;;;;;;;;;;6.20;56.20;;;;;;4986293;28;19929;-74
2022/03/12 02:34:53;;;;;;;;;;;6.20;56.30;;;;;;4987145;28;19929;-74
2022/03/12 02:37:25;;;;;;;;;;;6.20;56.40;;;;;;4984275;28;19936;-74
2022/03/12 02:39:51;;;;;;;;;;;6.20;56.50;;;;;;4985521;28;19929;-74
2022/03/12 02:42:20;;;;;;;;;;;6.20;56.60;;;;;;4987148;28;19937;-75
2022/03/12 02:44:49;;;;;;;;;;;6.10;56.60;;;;;;4985055;28;19965;-74
2022/03/12 02:47:17;;;;;;;;;;;6.20;56.80;;;;;;4985404;28;19929;-74
2022/03/12 02:49:46;;;;;;;;;;;6.10;56.90;;;;;;4986689;28;19933;-74
2022/03/12 02:52:13;;;;;;;;;;;6.10;56.90;;;;;;4988331;28;19930;-74
2022/03/12 02:54:40;;;;;;;;;;;6.10;57.10;;;;;;4986712;28;20032;-74
2022/03/12 02:57:07;;;;;;;;;;;6.10;57.10;;;;;;4985288;28;19936;-74
2022/03/12 02:59:35;;;;;;;;;;;6.10;57.20;;;;;;4990539;28;19930;-73
2022/03/12 03:02:03;;;;;;;;;;;6.00;57.30;;;;;;4987717;28;19930;-74
2022/03/12 03:04:34;;;;;;;;;;;6.00;57.30;;;;;;4985134;28;19937;-74
2022/03/12 03:07:02;;;;;;;;;;;6.00;57.40;;;;;;4985412;28;19930;-74
2022/03/12 03:09:29;;;;;;;;;;;6.00;57.50;;;;;;4984739;28;20431;-74
2022/03/12 03:11:56;;;;;;;;;;;6.00;57.60;;;;;;4988413;28;20691;-74
2022/03/12 03:14:26;;;;;;;;;;;6.00;57.70;;;;;;4985296;28;19933;-74
2022/03/12 03:16:54;;;;;;;;;;;6.00;57.70;;;;;;4985329;28;19930;-74
2022/03/12 03:19:25;;;;;;;;;;;6.00;57.80;;;;;;4984238;28;19936;-74
2022/03/12 03:21:52;;;;;;;;;;;6.00;57.90;;;;;;4986013;28;19933;-74
2022/03/12 03:24:19;;;;;;;;;;;6.00;57.80;;;;;;4986406;28;20410;-74
2022/03/12 03:26:56;;;;;;;;;;;5.90;57.90;;;;;;4984226;28;20621;-74
2022/03/12 03:29:24;;;;;;;;;;;5.90;58.00;;;;;;4984709;28;19929;-74
2022/03/12 03:31:50;;;;;;;;;;;5.90;58.20;;;;;;4983420;28;20438;-74
2022/03/12 03:34:19;;;;;;;;;;;5.90;58.10;;;;;;4984810;28;19937;-74
2022/03/12 03:36:46;;;;;;;;;;;5.90;58.10;;;;;;4984475;28;19930;-75
2022/03/12 03:39:13;;;;;;;;;;;5.90;58.20;;;;;;4981975;28;19932;-74
2022/03/12 03:41:39;;;;;;;;;;;5.80;58.20;;;;;;4983237;28;20298;-74
2022/03/12 03:44:06;;;;;;;;;;;5.90;58.30;;;;;;4985088;28;19936;-74
2022/03/12 03:46:33;;;;;;;;;;;5.90;58.20;;;;;;4984109;28;20394;-74
2022/03/12 03:49:00;;;;;;;;;;;5.80;58.20;;;;;;4984090;28;19937;-74
2022/03/12 03:51:28;;;;;;;;;;;5.80;58.20;;;;;;4985184;28;19937;-73
2022/03/12 03:53:54;;;;;;;;;;;5.80;58.30;;;;;;4985540;28;19930;-74
2022/03/12 03:56:21;;;;;;;;;;;5.80;58.30;;;;;;4982887;28;19934;-74
2022/03/12 03:58:48;;;;;;;;;;;5.70;58.30;;;;;;4985314;28;20370;-75
2022/03/12 04:01:16;;;;;;;;;;;5.80;58.30;;;;;;4984961;28;19930;-74
2022/03/12 04:03:47;;;;;;;;;;;5.80;58.50;;;;;;4985129;28;20414;-75
2022/03/12 04:06:15;;;;;;;;;;;5.70;58.40;;;;;;4984879;28;20489;-74
2022/03/12 04:08:43;;;;;;;;;;;5.70;58.40;;;;;;4982874;28;19930;-74
2022/03/12 04:11:14;;;;;;;;;;;5.70;58.40;;;;;;4984780;28;19933;-74
2022/03/12 04:13:41;;;;;;;;;;;5.70;58.40;;;;;;4982364;28;19937;-74
2022/03/12 04:16:08;;;;;;;;;;;5.70;58.50;;;;;;4983679;28;19941;-74
2022/03/12 04:18:35;;;;;;;;;;;5.70;58.40;;;;;;4983901;28;19930;-75
2022/03/12 04:21:04;;;;;;;;;;;5.70;58.40;;;;;;4985036;28;19942;-74
2022/03/12 04:23:31;;;;;;;;;;;5.60;58.20;;;;;;4985130;28;19937;-74
2022/03/12 04:25:59;;;;;;;;;;;5.70;58.40;;;;;;4985426;28;20016;-74
2022/03/12 04:28:28;;;;;;;;;;;5.60;58.40;;;;;;4983942;28;19937;-75
2022/03/12 04:30:55;;;;;;;;;;;5.60;58.40;;;;;;4984345;28;19965;-74
2022/03/12 04:33:22;;;;;;;;;;;5.60;58.40;;;;;;4983420;28;19925;-74
2022/03/12 04:35:49;;;;;;;;;;;5.60;58.50;;;;;;4983536;28;20558;-74
2022/03/12 04:38:16;;;;;;;;;;;5.60;58.50;;;;;;4981237;28;19933;-74
2022/03/12 04:40:44;;;;;;;;;;;5.60;58.50;;;;;;4983835;28;19945;-74
2022/03/12 04:43:12;;;;;;;;;;;5.60;58.60;;;;;;4984451;28;20028;-74
2022/03/12 04:45:40;;;;;;;;;;;5.60;58.50;;;;;;4983453;28;19941;-74
2022/03/12 04:48:07;;;;;;;;;;;5.60;58.50;;;;;;4980405;28;19936;-74
2022/03/12 04:50:33;;;;;;;;;;;5.60;58.60;;;;;;4982700;28;19977;-74
2022/03/12 04:53:01;;;;;;;;;;;5.60;58.60;;;;;;4984422;28;19934;-75
2022/03/12 04:55:29;;;;;;;;;;;5.60;58.50;;;;;;4983238;28;19973;-74
2022/03/12 04:57:56;;;;;;;;;;;5.60;58.50;;;;;;4983198;28;19937;-74
2022/03/12 05:00:26;;;;;;;;;;;5.60;58.50;;;;;;4984460;28;19926;-74
2022/03/12 05:02:54;;;;;;;;;;;5.60;58.60;;;;;;4983198;28;19985;-75
2022/03/12 05:05:21;;;;;;;;;;;5.60;58.50;;;;;;4982569;28;19940;-74
2022/03/12 05:07:48;;;;;;;;;;;5.60;58.60;;;;;;4984520;28;19930;-75
2022/03/12 05:10:16;;;;;;;;;;;5.60;58.60;;;;;;4984833;28;19930;-75
2022/03/12 05:12:43;;;;;;;;;;;5.60;58.60;;;;;;4980958;28;19933;-74
2022/03/12 05:15:11;;;;;;;;;;;5.50;58.50;;;;;;4983677;28;20221;-74
2022/03/12 05:17:42;;;;;;;;;;;5.60;58.70;;;;;;4982876;28;20061;-74
2022/03/12 05:20:10;;;;;;;;;;;5.50;58.70;;;;;;4979984;28;20057;-74
2022/03/12 05:22:37;;;;;;;;;;;5.50;58.70;;;;;;4984665;28;20421;-75
2022/03/12 05:25:04;;;;;;;;;;;5.50;58.70;;;;;;4983690;28;19934;-73
2022/03/12 05:27:30;;;;;;;;;;;5.50;58.70;;;;;;4981746;28;19944;-74
2022/03/12 05:29:57;;;;;;;;;;;5.50;58.50;;;;;;4984668;28;19926;-74
2022/03/12 05:32:23;;;;;;;;;;;5.50;58.50;;;;;;4983034;28;19929;-74
2022/03/12 05:34:51;;;;;;;;;;;5.50;58.50;;;;;;4981700;28;19936;-74
2022/03/12 05:37:19;;;;;;;;;;;5.50;58.70;;;;;;4980782;28;19930;-74
2022/03/12 05:39:46;;;;;;;;;;;5.50;58.40;;;;;;4982946;28;20058;-74
2022/03/12 05:42:12;;;;;;;;;;;5.40;58.40;;;;;;4983677;28;20317;-74
2022/03/12 05:44:39;;;;;;;;;;;5.50;58.50;;;;;;4983494;28;20309;-74
2022/03/12 05:47:09;;;;;;;;;;;5.40;58.40;;;;;;4982573;28;19992;-75
2022/03/12 05:49:35;;;;;;;;;;;5.50;58.40;;;;;;4979690;28;19930;-74
2022/03/12 05:52:04;;;;;;;;;;;5.40;58.70;;;;;;4985374;28;20021;-74
2022/03/12 05:54:30;;;;;;;;;;;5.40;58.80;;;;;;4987229;28;19934;-75
2022/03/12 05:56:57;;;;;;;;;;;5.40;58.60;;;;;;4987253;28;19930;-74
2022/03/12 05:59:23;;;;;;;;;;;5.40;58.70;;;;;;4986906;28;19973;-74
2022/03/12 06:01:50;;;;;;;;;;;5.40;58.60;;;;;;4988193;28;19929;-76
2022/03/12 06:04:27;;;;;;;;;;;5.40;58.60;;;;;;4986779;28;19929;-74
2022/03/12 06:06:54;;;;;;;;;;;5.30;58.50;;;;;;4985925;28;19930;-74
2022/03/12 06:09:22;;;;;;;;;;;5.30;58.40;;;;;;4986314;28;19930;-75
2022/03/12 06:11:53;;;;;;;;;;;5.30;58.40;;;;;;4984884;28;20409;-74
2022/03/12 06:14:21;;;;;;;;;;;5.30;58.40;;;;;;4985583;28;19929;-74
2022/03/12 06:16:48;;;;;;;;;;;5.30;58.10;;;;;;4984136;28;19930;-75
2022/03/12 06:19:15;;;;;;;;;;;5.30;58.20;;;;;;4984499;28;19930;-75
2022/03/12 06:21:42;;;;;;;;;;;5.30;58.30;;;;;;4986577;28;19934;-74
2022/03/12 06:24:09;;;;;;;;;;;5.30;58.30;;;;;;4986984;28;19929;-75
2022/03/12 06:26:39;;;;;;;;;;;5.30;58.30;;;;;;4985451;28;19930;-74
2022/03/12 06:29:11;;;;;;;;;;;5.20;58.60;;;;;;4985026;28;19985;-74
2022/03/12 06:31:38;;;;;;;;;;;5.20;58.60;;;;;;4985406;28;20512;-74
2022/03/12 06:34:05;;;;;;;;;;;5.20;58.40;;;;;;4986079;28;20352;-74
2022/03/12 06:36:32;;;;;;;;;;;5.20;58.40;;;;;;4985484;28;20337;-74
2022/03/12 06:38:58;;;;;;;;;;;5.20;58.40;;;;;;4982892;28;19930;-74
2022/03/12 06:41:25;;;;;;;;;;;5.20;58.50;;;;;;4984784;28;20028;-74
2022/03/12 06:43:53;;;;;;;;;;;5.10;58.20;;;;;;4984953;28;19930;-73
2022/03/12 06:46:20;;;;;;;;;;;5.10;58.00;;;;;;4984683;28;19933;-74
2022/03/12 06:48:47;;;;;;;;;;;5.20;58.10;;;;;;4985939;28;20460;-74
2022/03/12 06:51:14;;;;;;;;;;;5.10;58.00;;;;;;4982961;28;19938;-74
2022/03/12 06:53:41;;;;;;;;;;;5.10;57.90;;;;;;4987645;28;19930;-74
2022/03/12 06:56:07;;;;;;;;;;;5.10;57.90;;;;;;4985281;28;19930;-74
2022/03/12 06:58:35;;;;;;;;;;;5.10;57.80;;;;;;4984706;28;20051;-74
2022/03/12 07:01:03;;;;;;;;;;;5.10;57.70;;;;;;4984681;28;19977;-74
2022/03/12 07:03:30;;;;;;;;;;;5.10;58.50;;;;;;4983330;28;20017;-74
2022/03/12 07:05:56;;;;;;;;;;;5.00;57.90;;;;;;4982190;28;19929;-74
2022/03/12 07:08:23;;;;;;;;;;;5.10;58.00;;;;;;4985117;28;19934;-74
2022/03/12 07:10:50;;;;;;;;;;;5.10;58.10;;;;;;4981903;28;19980;-73
2022/03/12 07:13:17;;;;;;;;;;;5.00;58.30;;;;;;4983876;28;20480;-74
2022/03/12 07:15:43;;;;;;;;;;;5.10;58.40;;;;;;4983062;28;19977;-73
2022/03/12 07:18:11;;;;;;;;;;;5.10;58.20;;;;;;4982281;28;19929;-74
2022/03/12 07:20:38;;;;;;;;;;;5.00;57.90;;;;;;4982561;28;20692;-74
2022/03/12 07:23:05;;;;;;;;;;;5.10;58.00;;;;;;4983587;28;20279;-74
2022/03/12 07:25:32;;;;;;;;;;;5.00;57.80;;;;;;4984399;28;20341;-73
2022/03/12 07:28:00;;;;;;;;;;;5.00;57.70;;;;;;4982301;28;20028;-74
2022/03/12 07:30:26;;;;;;;;;;;5.00;57.60;;;;;;4983043;28;19940;-74
2022/03/12 07:32:53;;;;;;;;;;;5.00;57.60;;;;;;4982449;28;19937;-74
2022/03/12 07:35:21;;;;;;;;;;;5.00;57.50;;;;;;4982256;28;19964;-73
2022/03/12 07:37:49;;;;;;;;;;;5.00;57.50;;;;;;4982385;28;19934;-74
2022/03/12 07:40:16;;;;;;;;;;;5.00;57.70;;;;;;4983015;28;19940;-74
2022/03/12 07:42:43;;;;;;;;;;;5.00;57.70;;;;;;4984713;28;20362;-74
2022/03/12 07:45:10;;;;;;;;;;;5.00;57.90;;;;;;4983207;28;19937;-74
2022/03/12 07:47:37;;;;;;;;;;;5.00;58.00;;;;;;4979797;28;20338;-74
2022/03/12 07:50:05;;;;;;;;;;;5.00;58.00;;;;;;4982448;28;19945;-74
2022/03/12 07:52:33;;;;;;;;;;;5.00;57.80;;;;;;4984534;28;19964;-73
2022/03/12 07:54:59;;;;;;;;;;;5.00;57.90;;;;;;4983203;28;19925;-74
2022/03/12 07:57:28;;;;;;;;;;;5.00;57.50;;;;;;4983471;28;19941;-73
2022/03/12 07:59:54;;;;;;;;;;;5.00;57.40;;;;;;4982461;28;20381;-74
2022/03/12 08:02:21;;;;;;;;;;;5.00;57.30;;;;;;4983120;28;19945;-74
2022/03/12 08:04:47;;;;;;;;;;;5.00;57.20;;;;;;4981451;28;19934;-74
2022/03/12 08:07:14;;;;;;;;;;;5.00;57.10;;;;;;4983043;28;19936;-74
2022/03/12 08:09:42;;;;;;;;;;;5.00;57.10;;;;;;4981504;28;20035;-74
2022/03/12 08:12:09;;;;;;;;;;;5.00;57.00;;;;;;4981380;28;19936;-74
2022/03/12 08:14:35;;;;;;;;;;;5.10;57.70;;;;;;4981363;28;19980;-74
2022/03/12 08:17:02;;;;;;;;;;;5.10;57.00;;;;;;4979673;28;19938;-71
2022/03/12 08:19:29;;;;;;;;;;;5.10;56.90;;;;;;4977599;28;19930;-70
2022/03/12 08:21:59;;;;;;;;;;;5.10;56.80;;;;;;4983552;28;19965;-71
2022/03/12 08:24:26;;;;;;;;;;;5.10;56.70;;;;;;4984904;28;20373;-71
2022/03/12 08:26:54;;;;;;;;;;;5.10;56.60;;;;;;4981983;28;19988;-71
2022/03/12 08:29:21;;;;;;;;;;;5.20;56.70;;;;;;4983271;28;20015;-71
2022/03/12 08:31:49;;;;;;;;;;;5.20;56.70;;;;;;4983773;28;20317;-71
2022/03/12 08:34:15;;;;;;;;;;;5.20;56.60;;;;;;4979785;28;19973;-72
2022/03/12 08:36:42;;;;;;;;;;;5.20;56.50;;;;;;4982514;28;19936;-71
2022/03/12 08:39:10;;;;;;;;;;;5.30;56.40;;;;;;4984809;28;19930;-70
2022/03/12 08:41:38;;;;;;;;;;;5.30;56.30;;;;;;4981048;28;19929;-71
2022/03/12 08:44:07;;;;;;;;;;;5.30;56.10;;;;;;4980630;28;19937;-72
2022/03/12 08:46:35;;;;;;;;;;;5.40;56.10;;;;;;4981958;28;19997;-70
2022/03/12 08:49:01;;;;;;;;;;;5.40;56.00;;;;;;4983711;28;19936;-69
2022/03/12 08:51:28;;;;;;;;;;;5.50;56.10;;;;;;4984140;28;19930;-70
2022/03/12 08:53:55;;;;;;;;;;;5.50;56.00;;;;;;4985462;28;19953;-70
2022/03/12 08:56:21;;;;;;;;;;;5.50;55.90;;;;;;4981463;28;19969;-70
2022/03/12 08:58:48;;;;;;;;;;;5.60;55.90;;;;;;4983530;28;19972;-71
2022/03/12 09:01:17;;;;;;;;;;;5.60;55.70;;;;;;4984392;28;19929;-70
2022/03/12 09:03:44;;;;;;;;;;;5.70;55.60;;;;;;4983331;28;19936;-70
2022/03/12 09:06:11;;;;;;;;;;;5.70;56.10;;;;;;4984732;28;20032;-70
2022/03/12 09:08:37;;;;;;;;;;;5.80;55.40;;;;;;4983308;28;20040;-70
2022/03/12 09:11:05;;;;;;;;;;;5.80;55.50;;;;;;4982913;28;19941;-70
2022/03/12 09:13:31;;;;;;;;;;;5.80;55.40;;;;;;4982411;28;19930;-71
2022/03/12 09:15:58;;;;;;;;;;;5.90;55.50;;;;;;4983332;28;19937;-70
2022/03/12 09:18:26;;;;;;;;;;;5.90;55.40;;;;;;4976413;28;20028;-70
2022/03/12 09:20:53;;;;;;;;;;;6.00;55.40;;;;;;4983575;28;19965;-70
2022/03/12 09:23:20;;;;;;;;;;;6.00;55.40;;;;;;4984469;28;19926;-70
2022/03/12 09:25:47;;;;;;;;;;;6.00;55.30;;;;;;4981644;28;19969;-71
2022/03/12 09:28:14;;;;;;;;;;;6.10;55.30;;;;;;4985800;28;19956;-71
2022/03/12 09:30:41;;;;;;;;;;;6.10;55.30;;;;;;4987578;28;20278;-71
2022/03/12 09:33:08;;;;;;;;;;;6.20;55.30;;;;;;4982593;28;19941;-72
2022/03/12 09:35:36;;;;;;;;;;;6.20;55.30;;;;;;4985934;28;19940;-74
2022/03/12 09:38:03;;;;;;;;;;;6.30;55.20;;;;;;4986748;28;19930;-74
2022/03/12 09:40:31;;;;;;;;;;;6.30;55.20;;;;;;4983310;28;19934;-74
2022/03/12 09:42:57;;;;;;;;;;;6.40;55.20;;;;;;4985562;28;19929;-74
2022/03/12 09:45:24;;;;;;;;;;;6.40;55.00;;;;;;4983001;28;22782;-74
2022/03/12 09:47:51;;;;;;;;;;;6.50;55.10;;;;;;4982631;28;19930;-75
2022/03/12 09:50:18;;;;;;;;;;;6.60;54.80;;;;;;4984655;28;19929;-74
2022/03/12 09:52:46;;;;;;;;;;;6.60;54.70;;;;;;4985915;28;19934;-74
2022/03/12 09:55:12;;;;;;;;;;;7.20;54.90;;;;;;4984553;28;19930;-74
2022/03/12 09:57:39;;;;;;;;;;;6.80;54.50;;;;;;4986106;28;20668;-75
2022/03/12 10:00:06;;;;;;;;;;;6.90;54.60;;;;;;4986594;28;20432;-75
2022/03/12 10:02:33;;;;;;;;;;;6.90;54.60;;;;;;4983736;28;19929;-74
2022/03/12 10:05:00;;;;;;;;;;;7.00;54.60;;;;;;4985683;28;19941;-73
2022/03/12 10:07:26;;;;;;;;;;;7.10;54.50;;;;;;4983993;28;19930;-74
2022/03/12 10:09:54;;;;;;;;;;;7.10;54.40;;;;;;4984514;28;19930;-75
2022/03/12 10:12:21;;;;;;;;;;;7.20;54.30;;;;;;4985469;28;19930;-74
2022/03/12 10:14:49;;;;;;;;;;;7.20;54.10;;;;;;4983586;28;19965;-75
2022/03/12 10:17:17;;;;;;;;;;;7.40;54.20;;;;;;4984319;28;19940;-75
2022/03/12 10:19:44;;;;;;;;;;;7.40;54.00;;;;;;4984591;28;20357;-74
2022/03/12 10:22:11;;;;;;;;;;;7.50;53.80;;;;;;4985293;28;20424;-74
2022/03/12 10:24:37;;;;;;;;;;;7.60;54.00;;;;;;4984710;28;19926;-74
2022/03/12 10:27:06;;;;;;;;;;;7.60;54.10;;;;;;4983956;28;19934;-74
2022/03/12 10:29:33;;;;;;;;;;;7.70;54.00;;;;;;4982109;28;19961;-73
2022/03/12 10:32:00;;;;;;;;;;;7.80;53.70;;;;;;4980660;28;19937;-74
2022/03/12 10:34:27;;;;;;;;;;;7.80;53.60;;;;;;4983030;28;20078;-74
2022/03/12 10:36:55;;;;;;;;;;;7.90;53.80;;;;;;4984623;28;19976;-75
2022/03/12 10:39:30;;;;;;;;;;;7.90;53.70;;;;;;4984080;28;19934;-74
2022/03/12 10:42:00;;;;;;;;;;;8.00;53.50;;;;;;4982272;28;19934;-75
2022/03/12 10:44:34;;;;;;;;;;;8.00;53.50;;;;;;4983551;28;19929;-75
2022/03/12 10:47:01;;;;;;;;;;;8.10;53.30;;;;;;4982690;28;19930;-75
2022/03/12 10:49:27;;;;;;;;;;;8.20;53.20;;;;;;4981431;28;19937;-74
2022/03/12 10:51:56;;;;;;;;;;;8.30;53.10;;;;;;4983578;28;19929;-74
2022/03/12 10:54:22;;;;;;;;;;;8.30;53.10;;;;;;4983598;28;19930;-75
2022/03/12 10:56:50;;;;;;;;;;;8.40;53.20;;;;;;4983310;28;19933;-74
2022/03/12 10:59:19;;;;;;;;;;;8.50;53.30;;;;;;4981887;28;19937;-75
2022/03/12 11:01:51;;;;;;;;;;;8.50;53.20;;;;;;4983582;28;19973;-75
2022/03/12 11:04:22;;;;;;;;;;;8.60;53.00;;;;;;4981011;28;19957;-74
2022/03/12 11:06:50;;;;;;;;;;;8.70;52.90;;;;;;4981061;28;19937;-74
2022/03/12 11:09:18;;;;;;;;;;;8.80;52.70;;;;;;4983100;28;19940;-75
2022/03/12 11:11:46;;;;;;;;;;;8.80;52.50;;;;;;4982927;28;20035;-75
2022/03/12 11:14:17;;;;;;;;;;;8.90;52.70;;;;;;4981368;28;19934;-75
2022/03/12 11:16:47;;;;;;;;;;;9.00;52.70;;;;;;4982741;28;19941;-75
2022/03/12 11:19:15;;;;;;;;;;;9.00;52.50;;;;;;4979327;28;19929;-74
2022/03/12 11:21:43;;;;;;;;;;;9.10;52.50;;;;;;4983772;28;20082;-75
2022/03/12 11:24:15;;;;;;;;;;;9.20;52.30;;;;;;4983555;28;20448;-75
2022/03/12 11:26:46;;;;;;;;;;;9.20;52.30;;;;;;4984764;28;20364;-75
2022/03/12 11:29:13;;;;;;;;;;;9.20;52.30;;;;;;4979290;28;20011;-75
2022/03/12 11:31:45;;;;;;;;;;;9.40;52.20;;;;;;4983057;28;19944;-75
2022/03/12 11:34:19;;;;;;;;;;;9.40;52.20;;;;;;4982125;28;19929;-75
2022/03/12 11:36:46;;;;;;;;;;;9.50;52.20;;;;;;4984363;28;19983;-76
2022/03/12 11:39:16;;;;;;;;;;;9.50;52.10;;;;;;4984635;28;20040;-75
2022/03/12 11:41:43;;;;;;;;;;;9.60;52.10;;;;;;4983313;28;20618;-75
2022/03/12 11:44:10;;;;;;;;;;;9.70;52.10;;;;;;4983501;28;19965;-75
2022/03/12 11:46:37;;;;;;;;;;;9.80;52.10;;;;;;4982497;28;19930;-75
2022/03/12 11:49:04;;;;;;;;;;;9.80;52.10;;;;;;4977846;28;19938;-75
2022/03/12 11:51:32;;;;;;;;;;;9.90;52.10;;;;;;4983544;28;20020;-75
2022/03/12 11:54:00;;;;;;;;;;;10.00;52.10;;;;;;4984234;28;19937;-75
2022/03/12 11:56:27;;;;;;;;;;;10.00;52.00;;;;;;4981035;28;19938;-75
2022/03/12 11:58:54;;;;;;;;;;;10.10;52.00;;;;;;4983871;28;19934;-75
2022/03/12 12:01:21;;;;;;;;;;;10.10;51.90;;;;;;4981874;28;20302;-74
2022/03/12 12:03:48;;;;;;;;;;;10.20;52.00;;;;;;4981050;28;19930;-75
2022/03/12 12:06:15;;;;;;;;;;;10.20;52.30;;;;;;4981323;28;20487;-75
2022/03/12 12:08:43;;;;;;;;;;;10.20;52.00;;;;;;4983332;28;20285;-76
2022/03/12 12:11:11;;;;;;;;;;;10.30;52.10;;;;;;4984119;28;20037;-75
2022/03/12 12:13:40;;;;;;;;;;;10.30;52.10;;;;;;4984184;28;20015;-76
2022/03/12 12:16:06;;;;;;;;;;;10.40;52.20;;;;;;4981011;28;19926;-75
2022/03/12 12:18:33;;;;;;;;;;;10.40;52.20;;;;;;4983065;28;19929;-75
2022/03/12 12:21:00;;;;;;;;;;;10.50;52.20;;;;;;4981647;28;19930;-75
2022/03/12 12:23:27;;;;;;;;;;;10.50;52.10;;;;;;4984512;28;19934;-75
2022/03/12 12:26:06;;;;;;;;;;;10.60;52.10;;;;;;4983628;28;20383;-75
2022/03/12 12:28:33;;;;;;;;;;;10.60;52.00;;;;;;4981726;28;20389;-75
2022/03/12 12:30:59;;;;;;;;;;;10.70;52.10;;;;;;4980473;28;19933;-76
2022/03/12 12:33:27;;;;;;;;;;;10.70;52.10;;;;;;4982410;28;19930;-75
2022/03/12 12:36:11;;;;;;;;;;;10.80;52.00;;;;;;4984301;28;19941;-76
2022/03/12 12:38:39;;;;;;;;;;;10.80;51.90;;;;;;4981424;28;20228;-74
2022/03/12 12:41:07;;;;;;;;;;;10.80;51.70;;;;;;4983431;28;19936;-75
2022/03/12 12:43:34;;;;;;;;;;;10.90;51.70;;;;;;4981835;28;19930;-74
2022/03/12 12:46:09;;;;;;;;;;;11.00;51.80;;;;;;4983716;28;19929;-75
2022/03/12 12:48:40;;;;;;;;;;;11.00;51.60;;;;;;4981748;28;20616;-75
2022/03/12 12:51:09;;;;;;;;;;;11.10;51.60;;;;;;4984812;28;19934;-75
2022/03/12 12:53:36;;;;;;;;;;;11.10;51.50;;;;;;4982219;28;20015;-75
2022/03/12 12:56:19;;;;;;;;;;;11.20;51.50;;;;;;4981987;28;20042;-75
2022/03/12 12:58:47;;;;;;;;;;;11.20;51.30;;;;;;4984393;28;20827;-76
2022/03/12 13:01:16;;;;;;;;;;;11.30;51.40;;;;;;4979985;28;19930;-76
2022/03/12 13:03:45;;;;;;;;;;;11.40;51.30;;;;;;4978885;28;19934;-75
2022/03/12 13:06:11;;;;;;;;;;;11.40;51.20;;;;;;4982510;28;19930;-76
2022/03/12 13:08:47;;;;;;;;;;;11.40;51.10;;;;;;4984342;28;19957;-75
2022/03/12 13:11:27;;;;;;;;;;;11.50;51.20;;;;;;4984861;28;20317;-75
2022/03/12 13:13:58;;;;;;;;;;;11.60;51.10;;;;;;4983765;28;19973;-76
2022/03/12 13:16:25;;;;;;;;;;;11.60;51.10;;;;;;4984028;28;20464;-76
2022/03/12 13:18:51;;;;;;;;;;;11.70;51.00;;;;;;4982433;28;19940;-75
2022/03/12 13:21:25;;;;;;;;;;;11.70;51.00;;;;;;4982177;28;20013;-75
2022/03/12 13:23:52;;;;;;;;;;;11.70;50.90;;;;;;4983521;28;19930;-75
2022/03/12 13:26:19;;;;;;;;;;;11.80;51.00;;;;;;4982689;28;19936;-75
2022/03/12 13:28:49;;;;;;;;;;;11.80;50.90;;;;;;4980031;28;19926;-75
2022/03/12 13:31:17;;;;;;;;;;;11.90;50.90;;;;;;4981809;28;20727;-75
2022/03/12 13:33:44;;;;;;;;;;;11.90;50.90;;;;;;4978092;28;19934;-74
2022/03/12 13:36:18;;;;;;;;;;;11.90;50.60;;;;;;4982197;28;19930;-75
2022/03/12 13:38:45;;;;;;;;;;;12.00;50.80;;;;;;4981557;28;19934;-75
2022/03/12 13:41:14;;;;;;;;;;;12.00;50.90;;;;;;4981716;28;19930;-75
2022/03/12 13:43:41;;;;;;;;;;;12.00;50.90;;;;;;4981152;28;19934;-75
2022/03/12 13:46:09;;;;;;;;;;;12.10;50.90;;;;;;4980998;28;19992;-75
2022/03/12 13:48:36;;;;;;;;;;;12.10;50.90;;;;;;4977970;28;19930;-75
2022/03/12 13:51:02;;;;;;;;;;;12.10;51.00;;;;;;4982796;28;19930;-76
2022/03/12 13:53:29;;;;;;;;;;;12.10;50.90;;;;;;4982196;28;19937;-75
2022/03/12 13:56:02;;;;;;;;;;;12.10;50.90;;;;;;4983695;28;19930;-75
2022/03/12 13:58:29;;;;;;;;;;;12.20;51.10;;;;;;4983449;28;19929;-76
2022/03/12 14:00:57;;;;;;;;;;;12.20;51.10;;;;;;4978572;28;19951;-76
2022/03/12 14:03:28;;;;;;;;;;;12.20;51.20;;;;;;4978135;28;20210;-76
2022/03/12 14:05:54;;;;;;;;;;;12.30;51.20;;;;;;4982654;28;20639;-75
2022/03/12 14:08:22;;;;;;;;;;;12.30;51.20;;;;;;4984222;28;20301;-76
2022/03/12 14:10:50;;;;;;;;;;;12.30;51.20;;;;;;4982008;28;20561;-75
2022/03/12 14:13:17;;;;;;;;;;;12.30;51.20;;;;;;4985556;28;19999;-75
2022/03/12 14:15:43;;;;;;;;;;;12.40;51.20;;;;;;4983464;28;19937;-75
2022/03/12 14:18:10;;;;;;;;;;;12.40;51.10;;;;;;4983856;28;20456;-75
2022/03/12 14:20:41;;;;;;;;;;;12.50;51.20;;;;;;4984587;28;20575;-75
2022/03/12 14:23:08;;;;;;;;;;;12.50;51.20;;;;;;4985574;28;19934;-76
2022/03/12 14:25:37;;;;;;;;;;;12.50;51.30;;;;;;4984564;28;21267;-76
2022/03/12 14:28:05;;;;;;;;;;;12.60;51.30;;;;;;4984888;28;19926;-75
2022/03/12 14:30:32;;;;;;;;;;;12.50;51.20;;;;;;4985310;28;19930;-76
2022/03/12 14:32:59;;;;;;;;;;;12.60;51.20;;;;;;4988869;28;19930;-76